createdAt,value
2022-08-04T00:01:57.375Z,99727.31
2022-08-04T00:04:45.129Z,99679.22
2022-08-04T00:07:44.023Z,99724.69
2022-08-04T00:10:17.943Z,99675.22
2022-08-04T00:12:52.418Z,99719.41
2022-08-04T00:15:21.275Z,99712.41
2022-08-04T00:17:59.726Z,99661.25
2022-08-04T00:20:32.881Z,99727.97
2022-08-04T00:23:02.982Z,99721.13
2022-08-04T00:25:31.298Z,99684.69
2022-08-04T00:28:02.692Z,99721.59
2022-08-04T00:30:31.536Z,99676.38
2022-08-04T00:33:00.566Z,99724.41
2022-08-04T00:35:29.679Z,99677.44
2022-08-04T00:37:58.480Z,99726.88
2022-08-04T00:41:00.091Z,99731.38
2022-08-04T00:43:56.532Z,99730.88
2022-08-04T00:46:39.116Z,99721.81
2022-08-04T00:49:51.583Z,99739.28
2022-08-04T00:52:48.137Z,99732.91
2022-08-04T00:55:42.426Z,99718.84
2022-08-04T00:58:55.810Z,99732.72
2022-08-04T01:01:52.615Z,99733.38
2022-08-04T01:04:57.258Z,99729.56
2022-08-04T01:07:54.042Z,99734.94
2022-08-04T01:10:31.396Z,99739.09
2022-08-04T01:13:46.918Z,99743.63
2022-08-04T01:16:18.493Z,99737.06
2022-08-04T01:19:12.774Z,99685.16
2022-08-04T01:22:34.525Z,99737.84
2022-08-04T01:25:20.522Z,99745.75
2022-08-04T01:28:15.509Z,99743.91
2022-08-04T01:30:49.469Z,99737.53
2022-08-04T01:33:18.616Z,99735.19
2022-08-04T01:35:57.023Z,99732.03
2022-08-04T01:38:40.819Z,99724.97
2022-08-04T01:41:19.494Z,99723.50
2022-08-04T01:44:03.409Z,99732.41
2022-08-04T01:46:35.562Z,99733.31
2022-08-04T01:49:06.710Z,99745.34
2022-08-04T01:51:39.653Z,99696.84
2022-08-04T01:54:09.503Z,99727.31
2022-08-04T01:56:37.781Z,99746.09
2022-08-04T01:59:06.871Z,99746.09
2022-08-04T02:01:37.546Z,99733.88
2022-08-04T02:04:20.160Z,99735.03
2022-08-04T02:07:40.929Z,99741.56
2022-08-04T02:10:46.730Z,99697.41
2022-08-04T02:13:52.652Z,99733.50
2022-08-04T02:16:45.246Z,99703.72
2022-08-04T02:19:26.633Z,99741.19
2022-08-04T02:22:18.013Z,99739.34
2022-08-04T02:25:09.229Z,99716.97
2022-08-04T02:28:13.339Z,99741.72
2022-08-04T02:30:48.320Z,99741.41
2022-08-04T02:33:26.960Z,99738.22
2022-08-04T02:36:02.255Z,99742.75
2022-08-04T02:38:42.415Z,99733.16
2022-08-04T02:41:11.616Z,99718.28
2022-08-04T02:43:51.211Z,99673.13
2022-08-04T02:46:22.887Z,99730.72
2022-08-04T02:48:56.248Z,99604.53
2022-08-04T02:51:42.987Z,99723.53
2022-08-04T02:54:10.990Z,99680.88
2022-08-04T02:56:41.100Z,99702.09
2022-08-04T02:59:12.642Z,99731.44
2022-08-04T03:01:56.855Z,99733.09
2022-08-04T03:04:44.293Z,99728.41
2022-08-04T03:08:03.733Z,99739.94
2022-08-04T03:10:56.600Z,99741.13
2022-08-04T03:14:24.160Z,99678.63
2022-08-04T03:17:12.121Z,99736.91
2022-08-04T03:20:05.650Z,99744.09
2022-08-04T03:23:11.993Z,99735.44
2022-08-04T03:26:08.505Z,99749.50
2022-08-04T03:29:36.353Z,99747.50
2022-08-04T03:33:06.893Z,99750.19
2022-08-04T03:36:26.104Z,99738.47
2022-08-04T03:39:53.549Z,99756.22
2022-08-04T03:42:57.746Z,99754.38
2022-08-04T03:45:57.678Z,99752.72
2022-08-04T03:48:46.499Z,99759.88
2022-08-04T03:51:55.178Z,99763.75
2022-08-04T03:54:57.221Z,99771.28
2022-08-04T03:57:40.610Z,99760.88
2022-08-04T04:00:27.343Z,99770.28
2022-08-04T04:03:28.208Z,99769.59
2022-08-04T04:06:30.014Z,99713.16
2022-08-04T04:09:50.898Z,99769.75
2022-08-04T04:12:33.171Z,99777.41
2022-08-04T04:15:31.997Z,99770.84
2022-08-04T04:18:23.962Z,99778.16
2022-08-04T04:21:35.073Z,99769.28
2022-08-04T04:24:52.133Z,99782.31
2022-08-04T04:27:32.809Z,99794.88
2022-08-04T04:30:12.878Z,99783.22
2022-08-04T04:33:28.615Z,99782.44
2022-08-04T04:36:09.936Z,99777.59
2022-08-04T04:39:25.969Z,99782.84
2022-08-04T04:42:33.425Z,99782.72
2022-08-04T04:45:32.098Z,99773.91
2022-08-04T04:48:28.174Z,99785.38
2022-08-04T04:51:34.276Z,99783.28
2022-08-04T04:54:51.671Z,99781.91
2022-08-04T04:57:54.541Z,99762.94
2022-08-04T05:00:14.342Z,99756.44
2022-08-04T05:03:03.916Z,99790.19
2022-08-04T05:05:44.807Z,99755.22
2022-08-04T05:09:07.033Z,99794.09
2022-08-04T05:12:59.211Z,99797.50
2022-08-04T05:15:25.480Z,99800.47
2022-08-04T05:17:57.559Z,99800.88
2022-08-04T05:20:34.671Z,99795.69
2022-08-04T05:23:08.648Z,99798.38
2022-08-04T05:26:10.730Z,99755.09
2022-08-04T05:28:55.241Z,99795.34
2022-08-04T05:31:40.234Z,99784.06
2022-08-04T05:34:20.945Z,99773.00
2022-08-04T05:36:53.507Z,99802.06
2022-08-04T05:39:37.618Z,99807.13
2022-08-04T05:42:07.313Z,99780.31
2022-08-04T05:44:36.349Z,99813.03
2022-08-04T05:47:05.927Z,99805.38
2022-08-04T05:49:35.466Z,99765.25
2022-08-04T05:52:05.198Z,99740.63
2022-08-04T05:54:35.751Z,99759.38
2022-08-04T05:57:08.802Z,99765.53
2022-08-04T05:59:42.545Z,99810.78
2022-08-04T06:02:11.579Z,99797.53
2022-08-04T06:04:42.700Z,99810.41
2022-08-04T06:07:14.694Z,99801.25
2022-08-04T06:09:43.214Z,99802.41
2022-08-04T06:12:36.417Z,99763.53
2022-08-04T06:15:08.375Z,99786.91
2022-08-04T06:18:35.119Z,99801.66
2022-08-04T06:20:50.090Z,99805.25
2022-08-04T06:23:21.481Z,99809.22
2022-08-04T06:25:57.163Z,99789.38
2022-08-04T06:28:28.613Z,99801.03
2022-08-04T06:32:30.316Z,99794.59
2022-08-04T06:33:54.302Z,99800.16
2022-08-04T06:36:23.152Z,99759.06
2022-08-04T06:38:58.718Z,99800.50
2022-08-04T06:41:29.841Z,99797.63
2022-08-04T06:44:06.454Z,99792.41
2022-08-04T06:46:38.459Z,99767.16
2022-08-04T06:49:06.948Z,99804.13
2022-08-04T06:51:46.945Z,99802.78
2022-08-04T06:54:17.473Z,99808.91
2022-08-04T06:56:47.267Z,99800.59
2022-08-04T06:59:17.361Z,99735.41
2022-08-04T07:01:47.667Z,99778.44
2022-08-04T07:04:15.915Z,99789.91
2022-08-04T07:06:43.983Z,99790.09
2022-08-04T07:09:12.444Z,99748.97
2022-08-04T07:11:44.297Z,99780.03
2022-08-04T07:14:14.201Z,99781.66
2022-08-04T07:16:42.913Z,99744.81
2022-08-04T07:19:13.744Z,99743.19
2022-08-04T07:22:16.846Z,99783.25
2022-08-04T07:24:36.737Z,99735.38
2022-08-04T07:27:07.001Z,99735.47
2022-08-04T07:29:40.250Z,99776.84
2022-08-04T07:32:11.312Z,99762.84
2022-08-04T07:34:40.978Z,99762.69
2022-08-04T07:37:10.523Z,99773.91
2022-08-04T07:39:47.855Z,99727.84
2022-08-04T07:42:20.547Z,99768.38
2022-08-04T07:44:49.420Z,99773.75
2022-08-04T07:47:20.983Z,99777.78
2022-08-04T07:49:56.534Z,99763.59
2022-08-04T07:52:28.050Z,99775.59
2022-08-04T07:54:56.581Z,99778.41
2022-08-04T07:57:40.752Z,99769.44
2022-08-04T08:00:15.116Z,99775.59
2022-08-04T08:02:45.789Z,99772.50
2022-08-04T08:05:17.330Z,99759.38
2022-08-04T08:07:54.299Z,99760.13
2022-08-04T08:10:24.680Z,99765.94
2022-08-04T08:12:55.176Z,99776.94
2022-08-04T08:15:23.394Z,99771.75
2022-08-04T08:17:59.096Z,99778.28
2022-08-04T08:20:31.796Z,99767.06
2022-08-04T08:23:02.415Z,99734.63
2022-08-04T08:25:33.291Z,99778.38
2022-08-04T08:28:05.178Z,99736.56
2022-08-04T08:30:34.619Z,99771.94
2022-08-04T08:33:08.329Z,99778.25
2022-08-04T08:35:54.934Z,99784.03
2022-08-04T08:38:49.191Z,99786.59
2022-08-04T08:42:09.322Z,99786.13
2022-08-04T08:45:24.790Z,99787.34
2022-08-04T08:48:47.258Z,99791.75
2022-08-04T08:51:42.645Z,99787.34
2022-08-04T08:55:16.354Z,99783.03
2022-08-04T08:58:29.839Z,99789.56
2022-08-04T09:01:13.272Z,99786.03
2022-08-04T09:04:02.824Z,99790.56
2022-08-04T09:07:04.935Z,99783.28
2022-08-04T09:09:51.558Z,99782.75
2022-08-04T09:12:50.902Z,99783.78
2022-08-04T09:15:45.574Z,99759.59
2022-08-04T09:18:29.672Z,99793.59
2022-08-04T09:21:17.896Z,99778.59
2022-08-04T09:24:01.006Z,99777.34
2022-08-04T09:26:41.086Z,99780.69
2022-08-04T09:29:39.846Z,99765.97
2022-08-04T09:32:38.948Z,99775.25
2022-08-04T09:35:42.320Z,99771.28
2022-08-04T09:38:36.334Z,99776.59
2022-08-04T09:41:48.801Z,99778.94
2022-08-04T09:44:54.257Z,99770.88
2022-08-04T09:47:41.118Z,99758.56
2022-08-04T09:50:34.245Z,99770.94
2022-08-04T09:53:30.554Z,99756.00
2022-08-04T09:56:10.945Z,99720.84
2022-08-04T09:59:24.342Z,99760.47
2022-08-04T10:02:00.236Z,99696.63
2022-08-04T10:04:32.018Z,99741.19
2022-08-04T10:07:33.579Z,99751.13
2022-08-04T10:10:28.933Z,99733.97
2022-08-04T10:13:24.750Z,99749.47
2022-08-04T10:16:17.377Z,99746.91
2022-08-04T10:19:21.118Z,99749.94
2022-08-04T10:22:29.253Z,99746.41
2022-08-04T10:26:05.661Z,99738.31
2022-08-04T10:28:30.684Z,99741.47
2022-08-04T10:31:10.177Z,99731.94
2022-08-04T10:33:51.497Z,99693.72
2022-08-04T10:36:27.795Z,99733.56
2022-08-04T10:39:42.234Z,99724.66
2022-08-04T10:42:23.065Z,99688.47
2022-08-04T10:45:19.969Z,99733.28
2022-08-04T10:48:35.000Z,99730.78
2022-08-04T10:51:25.444Z,99730.22
2022-08-04T10:54:02.877Z,99729.28
2022-08-04T10:56:42.056Z,99725.06
2022-08-04T10:59:19.305Z,99713.63
2022-08-04T11:02:02.768Z,99690.34
2022-08-04T11:04:47.868Z,99714.69
2022-08-04T11:07:18.072Z,99685.19
2022-08-04T11:09:46.844Z,99692.47
2022-08-04T11:12:25.986Z,99687.50
2022-08-04T11:15:18.917Z,99702.47
2022-08-04T11:18:17.038Z,99707.44
2022-08-04T11:21:16.672Z,99738.97
2022-08-04T11:24:20.720Z,99714.16
2022-08-04T11:27:02.017Z,99697.28
2022-08-04T11:30:01.539Z,99696.97
2022-08-04T11:33:19.588Z,99655.50
2022-08-04T11:35:58.924Z,99698.63
2022-08-04T11:39:08.774Z,99692.31
2022-08-04T11:42:09.343Z,99698.91
2022-08-04T11:44:49.519Z,99656.59
2022-08-04T11:47:33.288Z,99699.53
2022-08-04T11:50:25.583Z,99689.31
2022-08-04T11:52:57.324Z,99683.06
2022-08-04T11:55:28.871Z,99696.41
2022-08-04T11:57:57.238Z,99650.84
2022-08-04T12:00:30.375Z,99686.41
2022-08-04T12:04:00.475Z,99664.81
2022-08-04T12:11:09.582Z,99681.41
2022-08-04T12:13:58.817Z,99678.88
2022-08-04T12:16:39.076Z,99675.25
2022-08-04T12:19:23.315Z,99674.28
2022-08-04T12:21:57.091Z,99677.56
2022-08-04T12:24:45.683Z,99625.41
2022-08-04T12:27:18.927Z,99669.22
2022-08-04T12:30:57.805Z,99671.59
2022-08-04T12:32:53.500Z,99629.34
2022-08-04T12:35:39.449Z,99635.41
2022-08-04T12:38:32.868Z,99641.31
2022-08-04T12:41:05.124Z,99619.75
2022-08-04T12:43:47.361Z,99615.31
2022-08-04T12:46:28.195Z,99651.16
2022-08-04T12:49:03.985Z,99586.44
2022-08-04T12:52:07.879Z,99650.53
2022-08-04T12:54:32.395Z,99615.88
2022-08-04T12:57:04.610Z,99650.84
2022-08-04T12:59:45.500Z,99647.91
2022-08-04T13:02:31.268Z,99644.19
2022-08-04T13:05:08.115Z,99609.72
2022-08-04T13:07:46.541Z,99642.13
2022-08-04T13:10:18.474Z,99636.78
2022-08-04T13:12:58.463Z,99629.03
2022-08-04T13:15:29.425Z,99641.22
2022-08-04T13:18:04.755Z,99635.78
2022-08-04T13:20:37.164Z,99611.19
2022-08-04T13:23:09.132Z,99633.53
2022-08-04T13:26:44.054Z,99620.91
2022-08-04T13:28:34.979Z,99636.66
2022-08-04T13:31:08.128Z,99605.31
2022-08-04T13:33:42.423Z,99599.75
2022-08-04T13:36:11.349Z,99610.66
2022-08-04T13:38:51.973Z,99610.84
2022-08-04T13:41:24.790Z,99599.00
2022-08-04T13:44:17.948Z,99611.25
2022-08-04T13:46:56.724Z,99612.34
2022-08-04T13:49:48.538Z,99606.06
2022-08-04T13:52:13.031Z,99607.81
2022-08-04T13:54:48.357Z,99605.31
2022-08-04T13:57:45.173Z,99577.59
2022-08-04T14:00:29.200Z,99568.81
2022-08-04T14:03:23.244Z,99606.03
2022-08-04T14:06:10.989Z,99601.34
2022-08-04T14:09:08.338Z,99505.56
2022-08-04T14:12:10.169Z,99595.38
2022-08-04T14:14:32.675Z,99593.53
2022-08-04T14:17:16.312Z,99603.13
2022-08-04T14:19:53.797Z,99595.63
2022-08-04T14:22:30.537Z,99604.28
2022-08-04T14:25:17.143Z,99596.91
2022-08-04T14:27:56.631Z,99570.59
2022-08-04T14:30:38.312Z,99573.13
2022-08-04T14:34:03.181Z,99545.88
2022-08-04T14:36:01.721Z,99592.72
2022-08-04T14:38:54.213Z,99583.38
2022-08-04T14:41:43.851Z,99577.19
2022-08-04T14:44:12.144Z,99586.59
2022-08-04T14:46:56.111Z,99587.06
2022-08-04T14:49:24.200Z,99582.75
2022-08-04T14:51:59.687Z,99552.31
2022-08-04T14:54:45.827Z,99577.59
2022-08-04T14:57:16.819Z,99580.50
2022-08-04T15:00:00.817Z,99585.31
2022-08-04T15:02:30.934Z,99544.09
2022-08-04T15:06:00.926Z,99578.06
2022-08-04T15:07:53.529Z,99543.59
2022-08-04T15:10:21.950Z,99584.50
2022-08-04T15:12:50.389Z,99571.81
2022-08-04T15:15:35.862Z,99574.22
2022-08-04T15:18:04.989Z,99575.50
2022-08-04T15:20:35.554Z,99569.97
2022-08-04T15:23:08.618Z,99580.19
2022-08-04T15:25:51.819Z,99581.88
2022-08-04T15:28:25.534Z,99573.69
2022-08-04T15:30:56.182Z,99566.16
2022-08-04T15:33:33.534Z,99518.22
2022-08-04T15:36:42.455Z,99562.47
2022-08-04T15:39:20.996Z,99563.53
2022-08-04T15:42:16.178Z,99564.06
2022-08-04T15:45:20.798Z,99564.50
2022-08-04T15:48:12.182Z,99558.88
2022-08-04T15:51:03.846Z,99566.22
2022-08-04T15:54:03.207Z,99561.66
2022-08-04T15:56:29.714Z,99569.50
2022-08-04T15:58:58.633Z,99568.22
2022-08-04T16:01:28.200Z,99561.41
2022-08-04T16:04:00.946Z,99541.75
2022-08-04T16:06:30.650Z,99559.84
2022-08-04T16:09:05.488Z,99551.81
2022-08-04T16:11:35.292Z,99553.50
2022-08-04T16:14:03.123Z,99546.00
2022-08-04T16:16:40.298Z,99545.41
2022-08-04T16:19:13.548Z,99556.38
2022-08-04T16:21:51.718Z,99552.28
2022-08-04T16:24:37.487Z,99544.19
2022-08-04T16:27:11.819Z,99516.78
2022-08-04T16:29:43.295Z,99544.63
2022-08-04T16:32:24.002Z,99555.66
2022-08-04T16:35:04.673Z,99552.06
2022-08-04T16:37:40.573Z,99512.31
2022-08-04T16:40:38.828Z,99563.31
2022-08-04T16:43:18.935Z,99506.63
2022-08-04T16:46:18.394Z,99505.75
2022-08-04T16:49:07.303Z,99551.53
2022-08-04T16:51:35.311Z,99545.25
2022-08-04T16:54:05.630Z,99549.88
2022-08-04T16:56:35.982Z,99544.78
2022-08-04T16:59:12.947Z,99547.69
2022-08-04T17:01:53.079Z,99553.59
2022-08-04T17:04:33.103Z,99522.28
2022-08-04T17:07:05.155Z,99444.72
2022-08-04T17:09:33.387Z,99555.63
2022-08-04T17:12:03.127Z,99558.16
2022-08-04T17:14:32.293Z,99560.47
2022-08-04T17:17:08.863Z,99554.00
2022-08-04T17:19:38.142Z,99564.63
2022-08-04T17:22:10.423Z,99566.69
2022-08-04T17:24:41.194Z,99570.00
2022-08-04T17:28:08.749Z,99558.56
2022-08-04T17:29:59.257Z,99563.81
2022-08-04T17:32:27.830Z,99565.09
2022-08-04T17:35:03.737Z,99566.97
2022-08-04T17:37:38.204Z,99555.34
2022-08-04T17:40:17.979Z,99566.28
2022-08-04T17:44:02.825Z,99530.97
2022-08-04T17:46:29.521Z,99568.31
2022-08-04T17:49:07.497Z,99557.00
2022-08-04T17:52:04.501Z,99561.78
2022-08-04T17:54:36.936Z,99563.53
2022-08-04T17:57:33.255Z,99565.78
2022-08-04T18:00:01.520Z,99570.28
2022-08-04T18:02:34.695Z,99569.94
2022-08-04T18:05:11.879Z,99522.78
2022-08-04T18:08:38.462Z,99580.03
2022-08-04T18:10:55.737Z,99578.59
2022-08-04T18:13:28.883Z,99571.16
2022-08-04T18:16:05.399Z,99569.84
2022-08-04T18:18:35.406Z,99573.94
2022-08-04T18:21:06.863Z,99576.22
2022-08-04T18:23:35.235Z,99578.03
2022-08-04T18:26:23.789Z,99583.91
2022-08-04T18:28:52.421Z,99579.31
2022-08-04T18:31:21.391Z,99557.94
2022-08-04T18:33:56.959Z,99566.41
2022-08-04T18:36:33.806Z,99586.56
2022-08-04T18:39:11.948Z,99595.59
2022-08-04T18:41:51.609Z,99595.03
2022-08-04T18:44:32.809Z,99556.06
2022-08-04T18:47:29.603Z,99517.09
2022-08-04T18:51:01.238Z,99599.97
2022-08-04T18:52:48.669Z,99544.00
2022-08-04T18:55:51.621Z,99596.78
2022-08-04T18:58:12.600Z,99556.66
2022-08-04T19:00:45.694Z,99591.84
2022-08-04T19:03:16.495Z,99600.44
2022-08-04T19:05:51.907Z,99590.25
2022-08-04T19:08:34.215Z,99603.00
2022-08-04T19:11:36.926Z,99589.66
2022-08-04T19:13:58.131Z,99599.38
2022-08-04T19:16:32.285Z,99554.63
2022-08-04T19:19:05.661Z,99595.03
2022-08-04T19:21:59.957Z,99591.09
2022-08-04T19:24:32.303Z,99599.25
2022-08-04T19:27:08.198Z,99603.78
2022-08-04T19:29:40.697Z,99595.75
2022-08-04T19:32:16.020Z,99560.69
2022-08-04T19:34:47.393Z,99603.97
2022-08-04T19:37:56.223Z,99603.38
2022-08-04T19:40:13.289Z,99600.00
2022-08-04T19:42:43.404Z,99600.69
2022-08-04T19:45:15.420Z,99607.81
2022-08-04T19:48:17.513Z,99600.91
2022-08-04T19:50:34.228Z,99605.50
2022-08-04T19:53:04.174Z,99605.00
2022-08-04T19:55:49.490Z,99612.53
2022-08-04T19:58:21.674Z,99532.59
2022-08-04T20:00:55.786Z,99585.00
2022-08-04T20:04:09.674Z,99597.22
2022-08-04T20:06:13.500Z,99608.50
2022-08-04T20:08:48.301Z,99605.66
2022-08-04T20:11:18.852Z,99574.56
2022-08-04T20:13:54.677Z,99612.50
2022-08-04T20:16:28.658Z,99607.50
2022-08-04T20:19:03.667Z,99606.09
2022-08-04T20:21:53.936Z,99602.97
2022-08-04T20:24:40.154Z,99570.59
2022-08-04T20:27:15.122Z,99631.59
2022-08-04T20:29:51.176Z,99610.75
2022-08-04T20:32:22.791Z,99599.75
2022-08-04T20:34:53.738Z,99605.16
2022-08-04T20:37:24.944Z,99609.94
2022-08-04T20:39:55.566Z,99589.78
2022-08-04T20:42:33.617Z,99611.59
2022-08-04T20:45:02.961Z,99606.22
2022-08-04T20:47:35.715Z,99617.03
2022-08-04T20:50:08.665Z,99526.00
2022-08-04T20:52:39.600Z,99608.72
2022-08-04T20:55:09.851Z,99577.31
2022-08-04T20:57:48.753Z,99594.41
2022-08-04T21:00:30.010Z,99571.38
2022-08-04T21:02:59.968Z,99613.56
2022-08-04T21:05:31.662Z,99613.78
2022-08-04T21:08:00.273Z,99521.22
2022-08-04T21:10:30.707Z,99596.91
2022-08-04T21:12:59.381Z,99522.06
2022-08-04T21:15:57.883Z,99586.75
2022-08-04T21:18:16.628Z,99580.28
2022-08-04T21:20:47.990Z,99605.25
2022-08-04T21:23:16.597Z,99560.31
2022-08-04T21:25:49.863Z,99512.88
2022-08-04T21:28:20.155Z,99607.94
2022-08-04T21:30:54.489Z,99532.00
2022-08-04T21:33:49.609Z,99603.56
2022-08-04T21:36:19.477Z,99612.28
2022-08-04T21:38:51.381Z,99566.09
2022-08-04T21:41:24.722Z,99563.19
2022-08-04T21:43:55.795Z,99577.34
2022-08-04T21:46:24.554Z,99543.44
2022-08-04T21:48:52.623Z,99517.44
2022-08-04T21:51:58.012Z,99609.97
2022-08-04T21:57:03.616Z,99559.16
2022-08-04T21:59:31.792Z,99602.25
2022-08-04T22:02:01.385Z,99604.72
2022-08-04T22:04:30.933Z,99605.34
2022-08-04T22:07:03.033Z,99575.09
2022-08-04T22:09:38.643Z,99589.03
2022-08-04T22:12:12.022Z,99592.13
2022-08-04T22:14:41.211Z,99606.06
2022-08-04T22:17:13.584Z,99595.38
2022-08-04T22:19:54.853Z,99582.50
2022-08-04T22:22:29.283Z,99609.94
2022-08-04T22:25:12.383Z,99617.41
2022-08-04T22:28:02.873Z,99613.63
2022-08-04T22:30:37.569Z,99514.41
2022-08-04T22:33:09.023Z,99606.06
2022-08-04T22:35:44.117Z,99610.25
2022-08-04T22:38:28.069Z,99607.97
2022-08-04T22:41:14.023Z,99577.06
2022-08-04T22:43:42.851Z,99607.53
2022-08-04T22:46:24.509Z,99570.66
2022-08-04T22:48:53.400Z,99599.75
2022-08-04T22:51:22.429Z,99616.78
2022-08-04T22:53:51.963Z,99607.19
2022-08-04T22:56:38.266Z,99605.47
2022-08-04T22:59:11.481Z,99608.59
2022-08-04T23:01:59.014Z,99554.59
2022-08-04T23:04:31.105Z,99508.19
2022-08-04T23:07:00.705Z,99586.44
2022-08-04T23:09:50.863Z,99589.97
2022-08-04T23:12:25.788Z,99596.38
2022-08-04T23:14:59.089Z,99584.41
2022-08-04T23:17:28.705Z,99587.75
2022-08-04T23:19:58.986Z,99590.19
2022-08-04T23:22:41.672Z,99584.75
2022-08-04T23:25:17.053Z,99583.28
2022-08-04T23:27:48.120Z,99587.00
2022-08-04T23:30:29.482Z,99583.06
2022-08-04T23:33:02.904Z,99416.56
2022-08-04T23:35:34.833Z,99587.53
2022-08-04T23:38:31.288Z,99580.66
2022-08-04T23:40:54.710Z,99582.03
2022-08-04T23:43:23.672Z,99566.63
2022-08-04T23:46:04.105Z,99573.94
2022-08-04T23:48:40.374Z,99566.69
2022-08-04T23:51:15.303Z,99536.44
2022-08-04T23:54:02.239Z,99540.03
2022-08-04T23:56:35.711Z,99568.22
2022-08-04T23:59:17.846Z,99565.34
